createdAt,value
2022-07-31T00:00:15.121Z,23.10
2022-07-31T00:00:46.934Z,23.10
2022-07-31T00:01:18.779Z,23.10
2022-07-31T00:01:53.713Z,23.30
2022-07-31T00:02:25.646Z,23.10
2022-07-31T00:02:58.123Z,23.10
2022-07-31T00:03:29.998Z,23.00
2022-07-31T00:04:02.386Z,23.10
2022-07-31T00:04:34.221Z,23.10
2022-07-31T00:05:06.387Z,23.10
2022-07-31T00:05:41.850Z,23.00
2022-07-31T00:06:14.342Z,23.00
2022-07-31T00:06:46.190Z,23.00
2022-07-31T00:07:17.966Z,23.00
2022-07-31T00:07:49.957Z,23.00
2022-07-31T00:08:21.760Z,23.00
2022-07-31T00:08:53.502Z,23.00
2022-07-31T00:09:52.915Z,23.00
2022-07-31T00:10:17.215Z,22.90
2022-07-31T00:10:49.008Z,21.50
2022-07-31T00:11:20.912Z,23.00
2022-07-31T00:11:52.674Z,22.90
2022-07-31T00:12:24.529Z,23.00
2022-07-31T00:12:56.385Z,23.00
2022-07-31T00:13:57.593Z,23.00
2022-07-31T00:14:19.970Z,23.00
2022-07-31T00:14:51.754Z,22.90
2022-07-31T00:15:23.647Z,23.00
2022-07-31T00:15:55.431Z,23.00
2022-07-31T00:16:27.296Z,23.00
2022-07-31T00:16:59.310Z,23.00
2022-07-31T00:17:31.130Z,22.90
2022-07-31T00:18:03.023Z,23.00
2022-07-31T00:18:35.259Z,22.90
2022-07-31T00:19:07.129Z,22.90
2022-07-31T00:19:38.970Z,22.90
2022-07-31T00:20:13.478Z,22.90
2022-07-31T00:20:45.386Z,22.90
2022-07-31T00:21:17.324Z,22.90
2022-07-31T00:21:49.107Z,22.90
2022-07-31T00:22:20.869Z,21.50
2022-07-31T00:22:52.700Z,22.90
2022-07-31T00:23:24.506Z,22.90
2022-07-31T00:23:56.285Z,22.90
2022-07-31T00:24:30.120Z,22.90
2022-07-31T00:25:02.016Z,22.90
2022-07-31T00:25:33.886Z,22.90
2022-07-31T00:26:05.658Z,22.90
2022-07-31T00:26:37.823Z,22.90
2022-07-31T00:27:10.743Z,22.90
2022-07-31T00:27:43.127Z,22.80
2022-07-31T00:28:14.934Z,22.80
2022-07-31T00:28:48.088Z,22.80
2022-07-31T00:29:19.877Z,22.80
2022-07-31T00:29:51.787Z,22.80
2022-07-31T00:30:24.224Z,22.80
2022-07-31T00:30:56.033Z,22.80
2022-07-31T00:31:27.853Z,22.80
2022-07-31T00:31:59.623Z,22.80
2022-07-31T00:32:31.434Z,22.80
2022-07-31T00:33:03.362Z,22.80
2022-07-31T00:33:35.143Z,22.80
2022-07-31T00:34:07.002Z,22.80
2022-07-31T00:34:38.808Z,22.80
2022-07-31T00:35:12.443Z,22.80
2022-07-31T00:35:44.370Z,22.80
2022-07-31T00:36:16.237Z,22.80
2022-07-31T00:36:48.142Z,22.80
2022-07-31T00:37:20.158Z,22.80
2022-07-31T00:37:54.765Z,22.80
2022-07-31T00:38:34.137Z,24.10
2022-07-31T00:39:06.032Z,22.80
2022-07-31T00:39:38.359Z,22.80
2022-07-31T00:40:13.238Z,22.80
2022-07-31T00:40:48.876Z,22.80
2022-07-31T00:41:21.417Z,22.80
2022-07-31T00:41:54.957Z,22.80
2022-07-31T00:42:26.935Z,22.70
2022-07-31T00:42:58.696Z,22.70
2022-07-31T00:43:31.078Z,22.70
2022-07-31T00:44:02.894Z,22.70
2022-07-31T00:44:36.207Z,22.70
2022-07-31T00:45:13.241Z,22.70
2022-07-31T00:45:47.013Z,22.70
2022-07-31T00:46:23.533Z,22.70
2022-07-31T00:46:55.318Z,22.70
2022-07-31T00:47:27.525Z,22.70
2022-07-31T00:48:03.814Z,22.70
2022-07-31T00:48:36.287Z,22.70
2022-07-31T00:49:10.131Z,22.70
2022-07-31T00:49:42.234Z,22.70
2022-07-31T00:50:14.108Z,22.70
2022-07-31T00:50:46.958Z,22.70
2022-07-31T00:51:18.738Z,22.70
2022-07-31T00:51:51.842Z,22.70
2022-07-31T00:52:23.891Z,22.70
2022-07-31T00:52:55.726Z,22.60
2022-07-31T00:53:27.521Z,22.70
2022-07-31T00:53:59.316Z,22.60
2022-07-31T00:54:31.316Z,22.60
2022-07-31T00:55:03.532Z,22.60
2022-07-31T00:55:51.074Z,22.60
2022-07-31T00:56:25.089Z,22.60
2022-07-31T00:56:57.250Z,22.60
2022-07-31T00:57:29.050Z,22.60
2022-07-31T00:58:00.822Z,22.60
2022-07-31T00:58:32.665Z,23.70
2022-07-31T00:59:05.127Z,22.60
2022-07-31T00:59:37.005Z,22.60
2022-07-31T01:00:09.574Z,22.60
2022-07-31T01:00:41.528Z,22.60
2022-07-31T01:01:13.825Z,22.60
2022-07-31T01:01:45.667Z,22.60
2022-07-31T01:02:17.622Z,22.60
2022-07-31T01:02:50.308Z,22.60
2022-07-31T01:03:22.204Z,22.60
2022-07-31T01:03:54.791Z,22.60
2022-07-31T01:04:27.273Z,22.60
2022-07-31T01:04:59.275Z,22.60
2022-07-31T01:05:31.269Z,22.60
2022-07-31T01:06:03.483Z,22.60
2022-07-31T01:06:37.626Z,22.50
2022-07-31T01:07:12.793Z,22.50
2022-07-31T01:07:46.465Z,20.70
2022-07-31T01:08:18.366Z,22.60
2022-07-31T01:08:50.195Z,22.50
2022-07-31T01:09:22.532Z,22.50
2022-07-31T01:09:56.006Z,20.10
2022-07-31T01:10:59.469Z,22.50
2022-07-31T01:11:44.627Z,22.50
2022-07-31T01:12:39.642Z,22.60
2022-07-31T01:13:24.853Z,22.60
2022-07-31T01:14:02.952Z,22.50
2022-07-31T01:14:39.604Z,22.50
2022-07-31T01:15:13.792Z,22.50
2022-07-31T01:15:46.775Z,22.50
2022-07-31T01:16:19.184Z,22.50
2022-07-31T01:16:54.146Z,22.50
2022-07-31T01:17:29.480Z,25.20
2022-07-31T01:18:01.700Z,22.50
2022-07-31T01:18:37.101Z,22.50
2022-07-31T01:19:43.570Z,22.50
2022-07-31T01:20:18.560Z,22.50
2022-07-31T01:20:52.206Z,22.50
2022-07-31T01:21:33.550Z,22.40
2022-07-31T01:22:34.594Z,22.50
2022-07-31T01:23:18.473Z,23.70
2022-07-31T01:24:31.785Z,22.50
2022-07-31T01:25:45.822Z,22.50
2022-07-31T01:26:48.209Z,22.40
2022-07-31T01:27:57.595Z,22.40
2022-07-31T01:29:03.338Z,22.40
2022-07-31T01:29:45.060Z,26.60
2022-07-31T01:30:17.990Z,22.40
2022-07-31T01:31:17.228Z,22.40
2022-07-31T01:32:04.522Z,22.50
2022-07-31T01:32:41.474Z,22.30
2022-07-31T01:33:20.971Z,22.40
2022-07-31T01:34:01.457Z,22.40
2022-07-31T01:34:54.952Z,22.40
2022-07-31T01:35:35.110Z,22.40
2022-07-31T01:36:13.833Z,22.40
2022-07-31T01:36:52.136Z,22.40
2022-07-31T01:37:30.897Z,22.50
2022-07-31T01:38:15.945Z,22.30
2022-07-31T01:38:53.499Z,22.30
2022-07-31T01:39:26.978Z,22.40
2022-07-31T01:40:14.518Z,22.30
2022-07-31T01:40:50.378Z,22.30
2022-07-31T01:41:30.136Z,22.30
2022-07-31T01:42:06.667Z,22.30
2022-07-31T01:42:44.370Z,22.30
2022-07-31T01:43:22.705Z,22.30
2022-07-31T01:43:57.601Z,22.30
2022-07-31T01:44:31.560Z,22.40
2022-07-31T01:45:10.551Z,22.30
2022-07-31T01:45:47.064Z,22.30
2022-07-31T01:46:22.182Z,22.30
2022-07-31T01:46:58.494Z,22.30
2022-07-31T01:47:34.484Z,22.30
2022-07-31T01:48:08.731Z,22.30
2022-07-31T01:48:44.721Z,22.30
2022-07-31T01:49:19.392Z,22.30
2022-07-31T01:49:54.615Z,22.30
2022-07-31T01:50:42.255Z,22.30
2022-07-31T01:51:18.026Z,22.20
2022-07-31T01:51:50.899Z,20.60
2022-07-31T01:52:28.149Z,22.30
2022-07-31T01:53:00.933Z,22.20
2022-07-31T01:53:34.750Z,22.60
2022-07-31T01:54:07.884Z,22.20
2022-07-31T01:54:41.422Z,22.20
2022-07-31T01:55:16.878Z,22.20
2022-07-31T01:56:01.825Z,22.20
2022-07-31T01:56:40.325Z,22.20
2022-07-31T01:57:18.786Z,22.20
2022-07-31T01:57:56.219Z,22.20
2022-07-31T01:58:29.907Z,22.20
2022-07-31T01:59:20.697Z,22.20
2022-07-31T02:00:33.255Z,22.20
2022-07-31T02:01:09.304Z,22.20
2022-07-31T02:01:46.978Z,26.10
2022-07-31T02:02:21.302Z,22.20
2022-07-31T02:02:55.617Z,22.20
2022-07-31T02:03:43.486Z,22.20
2022-07-31T02:04:20.625Z,22.20
2022-07-31T02:04:53.421Z,22.20
2022-07-31T02:05:27.221Z,22.20
2022-07-31T02:06:01.200Z,22.20
2022-07-31T02:06:35.998Z,22.20
2022-07-31T02:07:08.783Z,23.30
2022-07-31T02:07:43.669Z,22.10
2022-07-31T02:08:18.079Z,22.20
2022-07-31T02:08:54.623Z,22.10
2022-07-31T02:09:29.897Z,22.10
2022-07-31T02:10:03.354Z,22.10
2022-07-31T02:10:39.641Z,22.20
2022-07-31T02:11:13.995Z,22.10
2022-07-31T02:11:54.816Z,22.10
2022-07-31T02:12:31.938Z,22.10
2022-07-31T02:13:07.092Z,22.10
2022-07-31T02:13:40.265Z,22.10
2022-07-31T02:14:14.060Z,22.10
2022-07-31T02:14:46.950Z,22.10
2022-07-31T02:15:21.240Z,22.10
2022-07-31T02:15:54.506Z,22.10
2022-07-31T02:16:28.760Z,22.10
2022-07-31T02:17:12.083Z,22.20
2022-07-31T02:18:04.006Z,22.10
2022-07-31T02:18:43.297Z,22.10
2022-07-31T02:19:22.434Z,22.10
2022-07-31T02:20:00.411Z,22.10
2022-07-31T02:20:33.651Z,22.10
2022-07-31T02:21:05.957Z,22.10
2022-07-31T02:21:37.838Z,22.10
2022-07-31T02:22:10.266Z,22.10
2022-07-31T02:22:43.326Z,22.10
2022-07-31T02:23:15.780Z,22.10
2022-07-31T02:23:47.591Z,22.10
2022-07-31T02:24:19.782Z,22.10
2022-07-31T02:24:51.678Z,22.50
2022-07-31T02:25:23.743Z,22.10
2022-07-31T02:25:56.727Z,22.00
2022-07-31T02:26:31.954Z,22.10
2022-07-31T02:27:07.045Z,22.10
2022-07-31T02:28:02.303Z,22.10
2022-07-31T02:28:40.622Z,22.00
2022-07-31T02:29:19.695Z,22.10
2022-07-31T02:29:55.227Z,22.00
2022-07-31T02:30:38.810Z,22.00
2022-07-31T02:31:16.860Z,22.00
2022-07-31T02:32:02.046Z,22.00
2022-07-31T02:32:36.962Z,22.00
2022-07-31T02:33:14.106Z,22.10
2022-07-31T02:33:49.272Z,21.90
2022-07-31T02:34:29.939Z,22.00
2022-07-31T02:35:05.566Z,22.00
2022-07-31T02:35:45.129Z,22.00
2022-07-31T02:36:22.465Z,22.10
2022-07-31T02:36:56.078Z,22.00
2022-07-31T02:37:31.496Z,22.00
2022-07-31T02:38:05.474Z,22.00
2022-07-31T02:38:57.515Z,22.00
2022-07-31T02:39:31.046Z,22.00
2022-07-31T02:40:05.565Z,21.90
2022-07-31T02:40:39.583Z,22.00
2022-07-31T02:41:16.475Z,22.00
2022-07-31T02:41:49.583Z,22.10
2022-07-31T02:42:22.831Z,21.90
2022-07-31T02:42:55.766Z,21.90
2022-07-31T02:43:28.484Z,21.90
2022-07-31T02:44:02.594Z,21.90
2022-07-31T02:44:35.563Z,22.00
2022-07-31T02:45:11.278Z,22.00
2022-07-31T02:45:44.130Z,21.90
2022-07-31T02:46:16.990Z,22.00
2022-07-31T02:46:49.187Z,22.00
2022-07-31T02:47:21.266Z,22.00
2022-07-31T02:47:54.253Z,21.90
2022-07-31T02:48:27.543Z,21.90
2022-07-31T02:49:03.006Z,21.90
2022-07-31T02:49:35.211Z,22.00
2022-07-31T02:50:09.135Z,21.90
2022-07-31T02:50:42.654Z,21.90
2022-07-31T02:51:15.928Z,21.90
2022-07-31T02:51:47.952Z,21.90
2022-07-31T02:52:21.913Z,21.90
2022-07-31T02:52:53.807Z,21.90
2022-07-31T02:53:27.117Z,21.90
2022-07-31T02:54:04.045Z,21.90
2022-07-31T02:54:39.411Z,21.90
2022-07-31T02:55:11.710Z,21.70
2022-07-31T02:55:46.496Z,21.90
2022-07-31T02:56:18.709Z,21.90
2022-07-31T02:56:52.051Z,21.90
2022-07-31T02:57:24.194Z,21.90
2022-07-31T02:57:56.054Z,21.90
2022-07-31T02:58:27.978Z,21.90
2022-07-31T02:59:00.162Z,24.60
2022-07-31T02:59:40.059Z,21.80
2022-07-31T03:00:23.273Z,21.80
2022-07-31T03:01:05.407Z,21.80
2022-07-31T03:01:38.650Z,21.80
2022-07-31T03:02:11.490Z,21.90
2022-07-31T03:02:50.100Z,21.80
2022-07-31T03:03:22.080Z,21.80
2022-07-31T03:03:54.634Z,21.80
2022-07-31T03:04:26.480Z,21.80
2022-07-31T03:04:59.318Z,21.90
2022-07-31T03:05:31.340Z,21.80
2022-07-31T03:06:03.374Z,21.80
2022-07-31T03:06:35.291Z,24.40
2022-07-31T03:07:07.317Z,21.80
2022-07-31T03:07:40.035Z,22.50
2022-07-31T03:08:11.845Z,21.80
2022-07-31T03:08:47.067Z,22.10
2022-07-31T03:09:23.173Z,21.80
2022-07-31T03:10:04.554Z,21.80
2022-07-31T03:11:00.777Z,21.80
2022-07-31T03:11:32.746Z,21.80
2022-07-31T03:12:05.595Z,21.70
2022-07-31T03:12:40.907Z,21.80
2022-07-31T03:13:14.129Z,21.80
2022-07-31T03:13:48.507Z,21.80
2022-07-31T03:14:22.798Z,21.80
2022-07-31T03:14:56.662Z,21.80
2022-07-31T03:15:30.566Z,21.80
2022-07-31T03:16:07.287Z,21.70
2022-07-31T03:16:40.865Z,21.80
2022-07-31T03:17:13.326Z,21.80
2022-07-31T03:17:47.351Z,21.80
2022-07-31T03:18:26.482Z,21.80
2022-07-31T03:18:58.410Z,22.30
2022-07-31T03:19:32.239Z,21.80
2022-07-31T03:20:06.078Z,21.80
2022-07-31T03:20:39.539Z,21.70
2022-07-31T03:21:12.621Z,21.70
2022-07-31T03:21:45.712Z,21.80
2022-07-31T03:22:18.490Z,21.70
2022-07-31T03:22:51.308Z,21.80
2022-07-31T03:23:27.251Z,21.70
2022-07-31T03:24:05.431Z,21.70
2022-07-31T03:24:37.902Z,21.70
2022-07-31T03:25:11.189Z,21.60
2022-07-31T03:25:53.698Z,21.70
2022-07-31T03:26:28.174Z,21.80
2022-07-31T03:27:00.802Z,21.70
2022-07-31T03:27:33.432Z,21.70
2022-07-31T03:28:05.483Z,22.00
2022-07-31T03:28:37.539Z,21.70
2022-07-31T03:29:42.410Z,21.70
2022-07-31T03:30:02.153Z,21.60
2022-07-31T03:30:33.994Z,21.70
2022-07-31T03:31:07.804Z,21.70
2022-07-31T03:31:40.923Z,21.70
2022-07-31T03:32:12.698Z,21.70
2022-07-31T03:32:45.109Z,21.70
2022-07-31T03:33:16.904Z,21.70
2022-07-31T03:33:48.766Z,21.70
2022-07-31T03:34:22.004Z,21.70
2022-07-31T03:34:57.716Z,21.70
2022-07-31T03:35:30.728Z,21.70
2022-07-31T03:36:02.559Z,21.70
2022-07-31T03:36:34.501Z,21.70
2022-07-31T03:37:07.138Z,21.70
2022-07-31T03:37:39.103Z,21.70
2022-07-31T03:38:41.235Z,21.70
2022-07-31T03:39:06.520Z,21.60
2022-07-31T03:39:43.825Z,21.70
2022-07-31T03:40:17.797Z,20.00
2022-07-31T03:40:50.026Z,21.70
2022-07-31T03:41:21.854Z,21.60
2022-07-31T03:41:56.613Z,21.60
2022-07-31T03:42:29.487Z,21.60
2022-07-31T03:43:04.219Z,21.70
2022-07-31T03:43:44.319Z,21.60
2022-07-31T03:44:21.676Z,24.00
2022-07-31T03:44:55.269Z,21.60
2022-07-31T03:45:28.797Z,21.60
2022-07-31T03:46:02.075Z,21.50
2022-07-31T03:46:34.485Z,21.60
2022-07-31T03:47:07.544Z,21.60
2022-07-31T03:47:39.659Z,23.90
2022-07-31T03:48:12.891Z,21.60
2022-07-31T03:48:45.560Z,21.60
2022-07-31T03:49:18.063Z,21.60
2022-07-31T03:49:50.367Z,21.60
2022-07-31T03:50:22.479Z,21.60
2022-07-31T03:50:54.593Z,21.60
2022-07-31T03:51:27.269Z,21.60
2022-07-31T03:52:00.149Z,21.60
2022-07-31T03:52:32.776Z,21.60
2022-07-31T03:53:08.783Z,21.50
2022-07-31T03:53:48.002Z,21.60
2022-07-31T03:54:55.726Z,21.60
2022-07-31T03:55:28.123Z,21.60
2022-07-31T03:56:02.366Z,21.60
2022-07-31T03:56:35.453Z,21.60
2022-07-31T03:57:09.703Z,21.60
2022-07-31T03:57:46.054Z,21.60
2022-07-31T03:58:20.197Z,21.60
2022-07-31T03:58:52.687Z,21.60
2022-07-31T03:59:27.238Z,21.60
2022-07-31T04:00:03.222Z,21.60
2022-07-31T04:00:38.536Z,21.60
2022-07-31T04:01:12.347Z,21.60
2022-07-31T04:01:57.293Z,20.70
2022-07-31T04:03:10.151Z,21.50
2022-07-31T04:04:01.078Z,21.50
2022-07-31T04:04:37.673Z,21.50
2022-07-31T04:05:10.358Z,21.50
2022-07-31T04:05:44.407Z,21.50
2022-07-31T04:06:16.237Z,21.50
2022-07-31T04:06:48.097Z,21.50
2022-07-31T04:07:20.767Z,21.50
2022-07-31T04:07:52.918Z,21.50
2022-07-31T04:08:24.779Z,21.50
2022-07-31T04:08:56.670Z,21.50
2022-07-31T04:09:29.259Z,21.50
2022-07-31T04:10:02.770Z,21.50
2022-07-31T04:10:36.417Z,21.50
2022-07-31T04:11:08.433Z,21.70
2022-07-31T04:11:40.364Z,21.50
2022-07-31T04:12:13.338Z,21.50
2022-07-31T04:12:45.180Z,21.50
2022-07-31T04:13:18.126Z,21.50
2022-07-31T04:13:50.014Z,21.50
2022-07-31T04:14:22.045Z,21.50
2022-07-31T04:14:53.851Z,21.60
2022-07-31T04:15:25.750Z,21.50
2022-07-31T04:15:57.650Z,21.50
2022-07-31T04:16:29.500Z,21.50
2022-07-31T04:17:01.600Z,21.50
2022-07-31T04:17:33.964Z,21.50
2022-07-31T04:18:06.185Z,21.50
2022-07-31T04:18:47.859Z,21.50
2022-07-31T04:19:22.828Z,21.50
2022-07-31T04:19:54.871Z,21.50
2022-07-31T04:20:26.779Z,21.50
2022-07-31T04:20:58.609Z,21.50
2022-07-31T04:21:30.427Z,21.50
2022-07-31T04:22:03.092Z,21.50
2022-07-31T04:22:36.399Z,21.50
2022-07-31T04:23:11.806Z,21.50
2022-07-31T04:24:18.216Z,21.50
2022-07-31T04:24:58.554Z,21.50
2022-07-31T04:25:36.465Z,21.40
2022-07-31T04:26:28.366Z,21.50
2022-07-31T04:27:09.410Z,21.50
2022-07-31T04:27:48.445Z,21.50
2022-07-31T04:28:21.420Z,21.50
2022-07-31T04:28:53.564Z,21.50
2022-07-31T04:29:28.559Z,21.50
2022-07-31T04:30:00.433Z,21.50
2022-07-31T04:30:32.431Z,21.50
2022-07-31T04:31:04.760Z,21.50
2022-07-31T04:31:40.362Z,21.50
2022-07-31T04:32:15.507Z,21.50
2022-07-31T04:33:04.496Z,21.40
2022-07-31T04:33:36.354Z,21.50
2022-07-31T04:34:19.234Z,21.40
2022-07-31T04:34:51.306Z,21.40
2022-07-31T04:35:23.142Z,21.40
2022-07-31T04:35:54.978Z,21.40
2022-07-31T04:36:30.322Z,21.50
2022-07-31T04:37:05.068Z,21.40
2022-07-31T04:37:36.874Z,21.40
2022-07-31T04:38:08.747Z,21.40
2022-07-31T04:38:42.718Z,21.40
2022-07-31T04:39:15.636Z,21.50
2022-07-31T04:39:47.613Z,21.40
2022-07-31T04:40:19.422Z,21.40
2022-07-31T04:40:51.515Z,21.40
2022-07-31T04:41:23.463Z,21.40
2022-07-31T04:41:56.062Z,21.40
2022-07-31T04:42:28.040Z,21.40
2022-07-31T04:43:04.810Z,21.40
2022-07-31T04:43:36.731Z,21.40
2022-07-31T04:44:08.558Z,21.40
2022-07-31T04:44:54.922Z,21.40
2022-07-31T04:45:26.767Z,21.40
2022-07-31T04:45:58.874Z,21.40
2022-07-31T04:46:30.758Z,21.40
2022-07-31T04:47:05.382Z,21.40
2022-07-31T04:47:39.811Z,21.40
2022-07-31T04:48:11.861Z,21.40
2022-07-31T04:48:43.917Z,21.40
2022-07-31T04:49:17.219Z,21.40
2022-07-31T04:49:49.412Z,21.50
2022-07-31T04:50:22.452Z,21.40
2022-07-31T04:51:01.156Z,21.40
2022-07-31T04:51:33.189Z,21.40
2022-07-31T04:52:06.059Z,21.40
2022-07-31T04:52:38.218Z,21.40
2022-07-31T04:53:15.811Z,21.40
2022-07-31T04:53:48.360Z,21.40
2022-07-31T04:54:20.260Z,21.40
2022-07-31T04:54:52.029Z,21.40
2022-07-31T04:55:24.411Z,21.40
2022-07-31T04:56:15.436Z,21.40
2022-07-31T04:56:48.455Z,21.40
2022-07-31T04:57:22.186Z,21.40
2022-07-31T04:57:54.334Z,21.40
2022-07-31T04:58:26.160Z,21.30
2022-07-31T04:58:58.059Z,21.40
2022-07-31T04:59:58.178Z,21.40
2022-07-31T05:00:21.825Z,21.30
2022-07-31T05:00:53.666Z,21.40
2022-07-31T05:01:25.889Z,21.30
2022-07-31T05:01:57.778Z,21.30
2022-07-31T05:02:31.311Z,21.40
2022-07-31T05:03:03.164Z,21.40
2022-07-31T05:03:35.434Z,21.30
2022-07-31T05:04:08.284Z,21.30
2022-07-31T05:04:40.884Z,21.40
2022-07-31T05:05:12.922Z,21.30
2022-07-31T05:05:47.095Z,21.30
2022-07-31T05:06:19.403Z,21.30
2022-07-31T05:06:52.526Z,21.40
2022-07-31T05:07:27.564Z,21.30
2022-07-31T05:08:01.354Z,21.30
2022-07-31T05:08:41.688Z,21.30
2022-07-31T05:09:19.041Z,21.30
2022-07-31T05:09:52.303Z,21.30
2022-07-31T05:10:42.975Z,20.70
2022-07-31T05:11:24.701Z,21.30
2022-07-31T05:11:56.558Z,21.30
2022-07-31T05:12:29.427Z,21.30
2022-07-31T05:13:01.266Z,21.30
2022-07-31T05:13:33.502Z,21.30
2022-07-31T05:14:07.842Z,21.30
2022-07-31T05:14:40.159Z,21.30
2022-07-31T05:15:12.172Z,21.30
2022-07-31T05:15:44.074Z,21.30
2022-07-31T05:16:15.930Z,21.30
2022-07-31T05:16:49.560Z,21.30
2022-07-31T05:17:22.606Z,21.30
2022-07-31T05:18:17.271Z,21.30
2022-07-31T05:19:14.839Z,21.30
2022-07-31T05:20:25.079Z,21.30
2022-07-31T05:21:23.836Z,21.30
2022-07-31T05:22:05.536Z,21.30
2022-07-31T05:23:09.965Z,21.30
2022-07-31T05:24:07.263Z,21.30
2022-07-31T05:24:50.309Z,21.30
2022-07-31T05:25:22.472Z,21.30
2022-07-31T05:25:54.294Z,21.30
2022-07-31T05:26:26.939Z,21.30
2022-07-31T05:26:58.791Z,21.30
2022-07-31T05:27:32.069Z,21.30
2022-07-31T05:28:04.451Z,21.30
2022-07-31T05:28:42.306Z,21.30
2022-07-31T05:29:14.734Z,21.30
2022-07-31T05:29:47.719Z,21.30
2022-07-31T05:30:30.115Z,21.30
2022-07-31T05:31:03.076Z,21.30
2022-07-31T05:31:35.441Z,21.30
2022-07-31T05:32:07.434Z,21.30
2022-07-31T05:32:40.466Z,21.30
2022-07-31T05:33:12.549Z,21.30
2022-07-31T05:33:47.614Z,21.30
2022-07-31T05:34:19.543Z,21.30
2022-07-31T05:34:51.372Z,21.30
2022-07-31T05:35:23.175Z,21.30
2022-07-31T05:35:55.993Z,21.20
2022-07-31T05:36:28.009Z,21.20
2022-07-31T05:37:02.160Z,21.30
2022-07-31T05:37:36.043Z,21.30
2022-07-31T05:38:11.735Z,21.30
2022-07-31T05:39:02.391Z,21.30
2022-07-31T05:39:43.311Z,21.30
2022-07-31T05:40:33.873Z,21.30
2022-07-31T05:41:38.377Z,21.30
2022-07-31T05:42:37.960Z,21.30
2022-07-31T05:43:28.530Z,21.30
2022-07-31T05:44:12.455Z,24.90
2022-07-31T05:44:47.302Z,21.30
2022-07-31T05:45:19.325Z,21.30
2022-07-31T05:45:52.297Z,21.30
2022-07-31T05:46:24.079Z,21.20
2022-07-31T05:47:26.606Z,21.30
2022-07-31T05:48:14.420Z,21.30
2022-07-31T05:48:46.338Z,21.30
2022-07-31T05:49:19.040Z,21.50
2022-07-31T05:49:54.841Z,21.30
2022-07-31T05:50:26.729Z,21.30
2022-07-31T05:51:02.393Z,21.30
2022-07-31T05:51:37.468Z,21.20
2022-07-31T05:52:09.271Z,21.30
2022-07-31T05:52:41.098Z,21.30
2022-07-31T05:53:45.710Z,21.30
2022-07-31T05:54:36.436Z,21.30
2022-07-31T05:55:34.406Z,21.50
2022-07-31T05:56:26.096Z,21.30
2022-07-31T05:56:59.146Z,21.30
2022-07-31T05:57:38.863Z,21.30
2022-07-31T05:58:16.422Z,21.60
2022-07-31T05:58:48.803Z,21.30
2022-07-31T05:59:21.531Z,21.30
2022-07-31T05:59:53.329Z,21.30
2022-07-31T06:00:25.566Z,21.30
2022-07-31T06:00:57.483Z,21.20
2022-07-31T06:01:29.588Z,21.30
2022-07-31T06:02:01.833Z,21.30
2022-07-31T06:02:37.100Z,21.30
2022-07-31T06:03:23.734Z,21.20
2022-07-31T06:04:04.006Z,21.30
2022-07-31T06:04:39.248Z,19.80
2022-07-31T06:05:11.533Z,21.30
2022-07-31T06:05:43.795Z,21.30
2022-07-31T06:06:16.938Z,21.30
2022-07-31T06:06:49.525Z,21.30
2022-07-31T06:07:21.342Z,21.30
2022-07-31T06:07:53.513Z,21.30
2022-07-31T06:08:26.312Z,21.30
2022-07-31T06:09:03.780Z,21.30
2022-07-31T06:09:40.407Z,21.30
2022-07-31T06:10:12.271Z,21.30
2022-07-31T06:10:44.269Z,21.30
2022-07-31T06:11:16.059Z,21.30
2022-07-31T06:11:47.893Z,21.80
2022-07-31T06:12:19.775Z,21.30
2022-07-31T06:12:51.930Z,21.30
2022-07-31T06:13:28.185Z,21.30
2022-07-31T06:14:00.076Z,21.30
2022-07-31T06:14:38.257Z,21.30
2022-07-31T06:15:24.302Z,21.30
2022-07-31T06:15:56.259Z,21.30
2022-07-31T06:16:28.064Z,21.30
2022-07-31T06:16:59.904Z,21.30
2022-07-31T06:17:43.622Z,21.30
2022-07-31T06:18:24.543Z,21.30
2022-07-31T06:18:56.388Z,21.30
2022-07-31T06:19:28.193Z,21.30
2022-07-31T06:20:00.086Z,21.30
2022-07-31T06:20:32.156Z,21.30
2022-07-31T06:21:04.227Z,21.40
2022-07-31T06:21:36.174Z,21.40
2022-07-31T06:22:08.342Z,21.40
2022-07-31T06:22:43.799Z,21.40
2022-07-31T06:23:22.999Z,21.40
2022-07-31T06:24:09.243Z,21.40
2022-07-31T06:24:45.257Z,21.40
2022-07-31T06:25:17.232Z,21.50
2022-07-31T06:25:49.099Z,21.40
2022-07-31T06:26:21.922Z,21.40
2022-07-31T06:27:00.210Z,21.40
2022-07-31T06:27:35.176Z,21.40
2022-07-31T06:28:10.646Z,21.30
2022-07-31T06:28:49.311Z,21.40
2022-07-31T06:29:40.181Z,21.40
2022-07-31T06:30:14.396Z,21.40
2022-07-31T06:30:46.268Z,25.30
2022-07-31T06:31:19.907Z,21.40
2022-07-31T06:31:51.896Z,21.40
2022-07-31T06:32:24.512Z,21.40
2022-07-31T06:32:56.337Z,21.40
2022-07-31T06:33:36.830Z,21.40
2022-07-31T06:34:09.740Z,21.40
2022-07-31T06:34:45.807Z,21.40
2022-07-31T06:35:19.602Z,21.40
2022-07-31T06:36:09.853Z,21.40
2022-07-31T06:36:44.145Z,21.40
2022-07-31T06:37:20.112Z,21.40
2022-07-31T06:37:54.089Z,21.40
2022-07-31T06:38:26.174Z,21.40
2022-07-31T06:39:17.329Z,21.40
2022-07-31T06:40:08.098Z,21.40
2022-07-31T06:40:51.506Z,21.40
2022-07-31T06:41:49.401Z,21.60
2022-07-31T06:42:33.774Z,21.40
2022-07-31T06:43:08.571Z,21.90
2022-07-31T06:44:03.812Z,21.50
2022-07-31T06:45:01.489Z,21.50
2022-07-31T06:45:52.680Z,21.50
2022-07-31T06:46:49.304Z,21.50
2022-07-31T06:47:46.060Z,21.30
2022-07-31T06:48:44.516Z,21.50
2022-07-31T06:49:19.063Z,21.40
2022-07-31T06:49:51.751Z,21.50
2022-07-31T06:50:23.697Z,21.50
2022-07-31T06:51:29.915Z,21.50
2022-07-31T06:51:59.949Z,21.50
2022-07-31T06:52:37.727Z,21.50
2022-07-31T06:53:10.439Z,21.50
2022-07-31T06:53:42.398Z,21.50
2022-07-31T06:54:14.997Z,21.50
2022-07-31T06:54:47.795Z,21.40
2022-07-31T06:55:19.637Z,21.50
2022-07-31T06:55:52.213Z,21.50
2022-07-31T06:56:24.125Z,21.50
2022-07-31T06:56:56.168Z,21.50
2022-07-31T06:57:28.107Z,21.50
2022-07-31T06:57:59.887Z,21.50
2022-07-31T06:58:32.029Z,21.50
2022-07-31T06:59:05.049Z,21.50
2022-07-31T06:59:40.251Z,21.50
2022-07-31T07:00:15.139Z,21.50
2022-07-31T07:00:52.900Z,21.50
2022-07-31T07:01:25.369Z,21.50
2022-07-31T07:01:57.295Z,21.50
2022-07-31T07:02:29.220Z,21.50
2022-07-31T07:03:01.058Z,21.50
2022-07-31T07:03:33.725Z,21.50
2022-07-31T07:04:06.259Z,21.50
2022-07-31T07:05:05.010Z,21.50
2022-07-31T07:05:30.659Z,21.50
2022-07-31T07:06:03.539Z,21.50
2022-07-31T07:06:35.389Z,21.50
2022-07-31T07:07:07.303Z,21.50
2022-07-31T07:07:39.681Z,21.50
2022-07-31T07:08:13.729Z,21.50
2022-07-31T07:08:46.673Z,21.50
2022-07-31T07:09:21.445Z,21.50
2022-07-31T07:09:53.702Z,21.50
2022-07-31T07:10:45.647Z,21.50
2022-07-31T07:11:43.870Z,21.50
2022-07-31T07:12:16.929Z,21.40
2022-07-31T07:12:51.187Z,21.70
2022-07-31T07:13:23.587Z,21.50
2022-07-31T07:13:55.650Z,21.50
2022-07-31T07:14:27.482Z,21.50
2022-07-31T07:14:59.304Z,21.50
2022-07-31T07:15:31.467Z,21.50
2022-07-31T07:16:03.650Z,21.50
2022-07-31T07:16:38.474Z,21.50
2022-07-31T07:17:10.350Z,21.50
2022-07-31T07:17:42.149Z,21.50
2022-07-31T07:18:21.935Z,21.50
2022-07-31T07:18:56.847Z,21.50
2022-07-31T07:19:28.776Z,21.50
2022-07-31T07:20:00.623Z,21.50
2022-07-31T07:20:32.683Z,21.50
2022-07-31T07:21:04.796Z,21.60
2022-07-31T07:21:39.665Z,21.50
2022-07-31T07:22:13.288Z,21.60
2022-07-31T07:22:45.098Z,21.60
2022-07-31T07:23:21.921Z,24.50
2022-07-31T07:24:00.461Z,21.50
2022-07-31T07:24:47.732Z,21.50
2022-07-31T07:25:25.595Z,21.60
2022-07-31T07:25:59.087Z,21.60
2022-07-31T07:26:31.749Z,21.50
2022-07-31T07:27:05.784Z,21.60
2022-07-31T07:27:37.639Z,21.60
2022-07-31T07:28:14.947Z,21.60
2022-07-31T07:29:02.461Z,21.60
2022-07-31T07:29:36.168Z,21.60
2022-07-31T07:30:08.534Z,21.50
2022-07-31T07:30:41.472Z,21.60
2022-07-31T07:31:13.344Z,21.70
2022-07-31T07:31:45.422Z,21.60
2022-07-31T07:32:17.475Z,21.60
2022-07-31T07:32:49.342Z,21.70
2022-07-31T07:33:41.439Z,21.90
2022-07-31T07:34:13.373Z,21.60
2022-07-31T07:34:46.424Z,21.60
2022-07-31T07:35:34.826Z,21.60
2022-07-31T07:36:23.396Z,21.60
2022-07-31T07:37:08.804Z,21.60
2022-07-31T07:37:41.321Z,21.60
2022-07-31T07:38:13.214Z,21.60
2022-07-31T07:38:47.710Z,21.60
2022-07-31T07:39:20.427Z,21.60
2022-07-31T07:39:52.706Z,21.60
2022-07-31T07:40:26.536Z,21.60
2022-07-31T07:40:58.373Z,21.60
2022-07-31T07:41:30.295Z,21.60
2022-07-31T07:42:02.379Z,21.70
2022-07-31T07:42:35.410Z,21.60
2022-07-31T07:43:07.233Z,21.60
2022-07-31T07:43:39.138Z,21.60
2022-07-31T07:44:15.253Z,21.60